Bath, South Carolina
Current Conditions -  °F | °C
As of 3:53 AM on Wednesday 22 Oct 2014 (Local Time) from KDNL Reporting Station
Clear Clear  
Wind Chill: 55°   Ceiling: Unl
Heat Index: 55°   Visibility: 10mi
Dew Point: 45°   Wind: 6mph
Humidity: 69%   Direction: 350°N
Pressure: 29.99"   Gusts: NA
Location:  33.5°N, 81.87°W
Report Text: KDNL 220753Z AUTO 35005KT 10SM CLR 13/07 A2999 RMK AO2 SLP152 T01280072
Loading
Personal Weather Stations






























Interactive Weather Map
Tropical Storm Tracking
New forecast layout! Learn more

10-Day Weather Forecast

Advertisements
Track Severe Weather on mobile